createdAt,value
2023-04-22T00:00:16.086Z,0.00
2023-04-22T00:01:16.088Z,0.00
2023-04-22T00:02:16.109Z,0.00
2023-04-22T00:03:16.302Z,0.00
2023-04-22T00:04:16.269Z,0.00
2023-04-22T00:05:18.574Z,0.00
2023-04-22T00:06:16.040Z,0.00
2023-04-22T00:07:16.009Z,0.00
2023-04-22T00:08:16.008Z,0.00
2023-04-22T00:09:15.980Z,0.00
2023-04-22T00:10:15.983Z,0.00
2023-04-22T00:11:15.994Z,0.00
2023-04-22T00:12:15.957Z,0.00
2023-04-22T00:13:15.950Z,0.00
2023-04-22T00:14:15.942Z,0.00
2023-04-22T00:15:15.923Z,0.00
2023-04-22T00:16:15.983Z,0.00
2023-04-22T00:17:15.902Z,0.00
2023-04-22T00:18:15.908Z,0.00
2023-04-22T00:19:15.902Z,0.00
2023-04-22T00:20:15.877Z,0.00
2023-04-22T00:21:16.419Z,0.00
2023-04-22T00:22:15.874Z,0.00
2023-04-22T00:23:15.873Z,0.00
2023-04-22T00:24:15.830Z,0.00
2023-04-22T00:25:15.820Z,0.00
2023-04-22T00:26:15.855Z,0.00
2023-04-22T00:27:15.803Z,0.00
2023-04-22T00:28:15.792Z,0.00
2023-04-22T00:29:15.782Z,0.00
2023-04-22T00:30:15.797Z,0.00
2023-04-22T00:31:15.845Z,0.00
2023-04-22T00:32:15.751Z,0.00
2023-04-22T00:33:15.746Z,0.00
2023-04-22T00:34:15.725Z,0.00
2023-04-22T00:35:15.731Z,0.00
2023-04-22T00:36:15.730Z,0.00
2023-04-22T00:37:15.689Z,0.00
2023-04-22T00:38:15.685Z,0.00
2023-04-22T00:39:15.743Z,0.00
2023-04-22T00:40:15.683Z,0.00
2023-04-22T00:41:15.677Z,0.00
2023-04-22T00:42:15.641Z,0.00
2023-04-22T00:43:15.631Z,0.00
2023-04-22T00:44:15.629Z,0.00
2023-04-22T00:45:15.618Z,0.00
2023-04-22T00:46:15.642Z,0.00
2023-04-22T00:47:15.738Z,0.00
2023-04-22T00:48:15.582Z,0.00
2023-04-22T00:49:15.572Z,0.00
2023-04-22T00:50:15.598Z,0.00
2023-04-22T00:51:15.580Z,0.00
2023-04-22T00:52:15.538Z,0.00
2023-04-22T00:53:15.522Z,0.00
2023-04-22T00:54:15.523Z,0.00
2023-04-22T00:55:15.493Z,0.00
2023-04-22T00:56:15.520Z,0.00
2023-04-22T00:57:15.489Z,0.00
2023-04-22T00:58:15.468Z,0.00
2023-04-22T00:59:15.461Z,0.00
2023-04-22T01:00:15.480Z,0.00
2023-04-22T01:01:15.474Z,0.00
2023-04-22T01:02:15.464Z,0.00
2023-04-22T01:03:15.511Z,0.00
2023-04-22T01:04:15.531Z,0.00
2023-04-22T01:05:15.388Z,0.00
2023-04-22T01:06:15.418Z,0.00
2023-04-22T01:07:15.369Z,0.00
2023-04-22T01:08:15.369Z,0.00
2023-04-22T01:09:15.358Z,0.00
2023-04-22T01:10:15.357Z,0.00
2023-04-22T01:11:15.359Z,0.00
2023-04-22T01:12:15.341Z,0.00
2023-04-22T01:13:15.316Z,0.00
2023-04-22T01:14:15.309Z,0.00
2023-04-22T01:15:15.291Z,0.00
2023-04-22T01:16:15.389Z,0.00
2023-04-22T01:17:15.281Z,0.00
2023-04-22T01:18:15.268Z,0.00
2023-04-22T01:19:15.263Z,0.00
2023-04-22T01:20:15.251Z,0.00
2023-04-22T01:21:15.245Z,0.00
2023-04-22T01:22:15.242Z,0.00
2023-04-22T01:23:15.223Z,0.00
2023-04-22T01:24:15.207Z,0.00
2023-04-22T01:25:15.187Z,0.00
2023-04-22T01:26:15.500Z,0.00
2023-04-22T01:27:15.172Z,0.00
2023-04-22T01:28:15.165Z,0.00
2023-04-22T01:32:34.587Z,0.00
2023-04-22T01:33:35.571Z,0.00
2023-04-22T01:34:35.577Z,0.00
2023-04-22T01:35:35.591Z,0.00
2023-04-22T01:36:35.545Z,0.00
2023-04-22T01:37:35.528Z,0.00
2023-04-22T01:38:35.519Z,0.00
2023-04-22T01:39:35.521Z,0.00
2023-04-22T01:40:35.525Z,0.00
2023-04-22T01:41:35.501Z,0.00
2023-04-22T01:42:35.476Z,0.00
2023-04-22T01:43:35.462Z,0.00
2023-04-22T01:44:35.449Z,0.00
2023-04-22T01:45:35.510Z,0.00
2023-04-22T01:46:35.800Z,0.00
2023-04-22T01:47:35.469Z,0.00
2023-04-22T01:48:35.424Z,0.00
2023-04-22T01:49:35.427Z,0.00
2023-04-22T01:50:35.388Z,0.00
2023-04-22T01:51:35.428Z,0.00
2023-04-22T01:52:35.359Z,0.00
2023-04-22T01:53:35.354Z,0.00
2023-04-22T01:54:35.337Z,0.00
2023-04-22T01:55:35.350Z,0.00
2023-04-22T01:56:35.358Z,0.00
2023-04-22T01:57:35.316Z,0.00
2023-04-22T01:58:35.314Z,0.00
2023-04-22T01:59:35.290Z,0.00
2023-04-22T02:00:35.270Z,0.00
2023-04-22T02:01:35.355Z,0.00
2023-04-22T02:02:35.340Z,0.00
2023-04-22T02:03:35.307Z,0.00
2023-04-22T02:04:35.255Z,0.00
2023-04-22T02:05:35.234Z,0.00
2023-04-22T02:06:35.232Z,0.00
2023-04-22T02:07:35.205Z,0.00
2023-04-22T02:08:35.232Z,0.00
2023-04-22T02:09:35.188Z,0.00
2023-04-22T02:10:35.176Z,0.00
2023-04-22T02:11:35.209Z,0.00
2023-04-22T02:12:35.150Z,0.00
2023-04-22T02:13:35.142Z,0.00
2023-04-22T02:14:35.141Z,0.00
2023-04-22T02:15:35.154Z,0.00
2023-04-22T02:16:35.119Z,0.00
2023-04-22T02:17:35.100Z,0.00
2023-04-22T02:18:35.103Z,0.00
2023-04-22T02:19:35.118Z,0.00
2023-04-22T02:20:35.084Z,0.00
2023-04-22T02:21:35.072Z,0.00
2023-04-22T02:22:35.047Z,0.00
2023-04-22T02:23:35.031Z,0.00
2023-04-22T02:24:35.020Z,0.00
2023-04-22T02:25:35.016Z,0.00
2023-04-22T02:26:35.019Z,0.00
2023-04-22T02:27:34.988Z,0.00
2023-04-22T02:28:34.990Z,0.00
2023-04-22T02:29:34.966Z,0.00
2023-04-22T02:30:34.949Z,0.00
2023-04-22T02:31:35.048Z,0.00
2023-04-22T02:32:34.955Z,0.00
2023-04-22T02:33:34.937Z,0.00
2023-04-22T02:34:34.910Z,0.00
2023-04-22T02:35:34.906Z,0.00
2023-04-22T02:36:34.906Z,0.00
2023-04-22T02:37:34.880Z,0.00
2023-04-22T02:38:34.866Z,0.00
2023-04-22T02:39:34.868Z,0.00
2023-04-22T02:40:34.845Z,0.00
2023-04-22T02:41:34.861Z,0.00
2023-04-22T02:42:34.929Z,0.00
2023-04-22T02:43:34.828Z,0.00
2023-04-22T02:44:34.817Z,0.00
2023-04-22T02:45:34.794Z,0.00
2023-04-22T02:46:34.857Z,0.00
2023-04-22T02:47:34.801Z,0.00
2023-04-22T02:48:34.762Z,0.00
2023-04-22T02:49:34.758Z,0.00
2023-04-22T02:50:34.733Z,0.00
2023-04-22T02:51:34.753Z,0.00
2023-04-22T02:52:34.731Z,0.00
2023-04-22T02:53:34.709Z,0.00
2023-04-22T02:54:34.705Z,0.00
2023-04-22T02:55:34.714Z,0.00
2023-04-22T02:56:34.709Z,0.00
2023-04-22T02:57:34.675Z,0.00
2023-04-22T02:58:34.654Z,0.00
2023-04-22T02:59:34.650Z,0.00
2023-04-22T03:00:34.695Z,0.00
2023-04-22T03:01:34.710Z,0.00
2023-04-22T03:02:34.721Z,0.00
2023-04-22T03:03:34.705Z,0.00
2023-04-22T03:04:34.617Z,0.00
2023-04-22T03:05:34.596Z,0.00
2023-04-22T03:06:34.578Z,0.00
2023-04-22T03:07:34.590Z,0.00
2023-04-22T03:08:34.552Z,0.00
2023-04-22T03:09:34.531Z,0.00
2023-04-22T03:10:55.533Z,0.00
2023-04-22T03:11:34.536Z,0.00
2023-04-22T03:12:34.506Z,0.00
2023-04-22T03:13:34.498Z,0.00
2023-04-22T03:14:34.557Z,0.00
2023-04-22T03:15:34.466Z,0.00
2023-04-22T03:16:34.517Z,0.00
2023-04-22T03:17:34.490Z,0.00
2023-04-22T03:18:34.440Z,0.00
2023-04-22T03:19:34.420Z,0.00
2023-04-22T03:20:34.446Z,0.00
2023-04-22T03:21:34.441Z,0.00
2023-04-22T03:22:34.410Z,0.00
2023-04-22T03:23:34.386Z,0.00
2023-04-22T03:24:34.398Z,0.00
2023-04-22T03:25:34.418Z,0.00
2023-04-22T03:26:34.317Z,1.00
2023-04-22T03:27:34.369Z,0.00
2023-04-22T03:28:34.360Z,0.00
2023-04-22T03:29:34.316Z,0.00
2023-04-22T03:30:34.323Z,0.00
2023-04-22T03:31:34.367Z,0.00
2023-04-22T03:32:34.344Z,0.00
2023-04-22T03:33:34.232Z,1.00
2023-04-22T03:34:35.826Z,1.00
2023-04-22T03:35:34.209Z,1.00
2023-04-22T03:36:34.214Z,1.00
2023-04-22T03:37:34.235Z,0.00
2023-04-22T03:38:34.247Z,0.00
2023-04-22T03:39:34.211Z,0.00
2023-04-22T03:40:34.212Z,0.00
2023-04-22T03:41:34.287Z,0.00
2023-04-22T03:42:34.186Z,0.00
2023-04-22T03:43:34.164Z,0.00
2023-04-22T03:44:34.154Z,1.00
2023-04-22T03:45:34.156Z,0.00
2023-04-22T03:46:34.306Z,0.00
2023-04-22T03:47:34.134Z,0.00
2023-04-22T03:48:34.124Z,1.00
2023-04-22T03:49:34.060Z,1.00
2023-04-22T03:50:34.046Z,2.00
2023-04-22T03:51:34.055Z,1.00
2023-04-22T03:52:34.032Z,1.00
2023-04-22T03:53:34.002Z,1.00
2023-04-22T03:54:34.013Z,2.00
2023-04-22T03:55:33.982Z,2.00
2023-04-22T03:56:34.010Z,2.00
2023-04-22T03:57:33.975Z,3.00
2023-04-22T03:58:33.958Z,3.00
2023-04-22T03:59:33.946Z,4.00
2023-04-22T04:00:33.950Z,6.00
2023-04-22T04:01:33.933Z,7.00
2023-04-22T04:02:34.032Z,8.00
2023-04-22T04:03:34.327Z,10.00
2023-04-22T04:04:34.277Z,12.00
2023-04-22T04:05:33.909Z,15.00
2023-04-22T04:06:33.909Z,18.00
2023-04-22T04:07:33.850Z,21.00
2023-04-22T04:08:33.854Z,23.00
2023-04-22T04:09:33.830Z,28.00
2023-04-22T04:10:33.839Z,31.00
2023-04-22T04:11:33.853Z,36.00
2023-04-22T04:12:33.826Z,40.00
2023-04-22T04:13:33.794Z,44.00
2023-04-22T04:14:33.776Z,48.00
2023-04-22T04:15:33.880Z,52.00
2023-04-22T04:16:33.916Z,55.00
2023-04-22T04:17:33.782Z,60.00
2023-04-22T04:18:33.802Z,64.00
2023-04-22T04:19:33.729Z,68.00
2023-04-22T04:20:33.721Z,72.00
2023-04-22T04:21:33.741Z,76.00
2023-04-22T04:22:33.714Z,81.00
2023-04-22T04:23:33.694Z,87.00
2023-04-22T04:24:33.669Z,92.00
2023-04-22T04:25:33.681Z,96.00
2023-04-22T04:26:33.688Z,99.00
2023-04-22T04:27:33.648Z,103.00
2023-04-22T04:28:33.635Z,107.00
2023-04-22T04:29:33.621Z,111.00
2023-04-22T04:30:33.687Z,112.00
2023-04-22T04:31:33.686Z,117.00
2023-04-22T04:32:33.600Z,123.00
2023-04-22T04:33:33.576Z,131.00
2023-04-22T04:34:33.559Z,139.00
2023-04-22T04:35:33.554Z,149.00
2023-04-22T04:36:33.563Z,155.00
2023-04-22T04:37:33.535Z,159.00
2023-04-22T04:38:33.514Z,175.00
2023-04-22T04:39:33.524Z,240.00
2023-04-22T04:40:33.501Z,269.00
2023-04-22T04:41:33.527Z,251.00
2023-04-22T04:42:33.474Z,239.00
2023-04-22T04:43:33.480Z,241.00
2023-04-22T04:44:33.466Z,251.00
2023-04-22T04:45:33.446Z,260.00
2023-04-22T04:46:33.504Z,266.00
2023-04-22T04:47:33.438Z,272.00
2023-04-22T04:48:33.413Z,280.00
2023-04-22T04:49:33.398Z,287.00
2023-04-22T04:50:33.384Z,303.00
2023-04-22T04:51:33.407Z,305.00
2023-04-22T04:52:33.369Z,312.00
2023-04-22T04:53:33.365Z,314.00
2023-04-22T04:54:33.346Z,292.00
2023-04-22T04:55:33.379Z,369.00
2023-04-22T04:56:33.340Z,519.00
2023-04-22T04:57:33.312Z,1415.00
2023-04-22T04:58:33.325Z,874.00
2023-04-22T04:59:33.293Z,577.00
2023-04-22T05:00:33.281Z,539.00
2023-04-22T05:01:33.435Z,507.00
2023-04-22T05:02:33.365Z,746.00
2023-04-22T05:03:33.395Z,790.00
2023-04-22T05:04:33.596Z,613.00
2023-04-22T05:05:33.227Z,820.00
2023-04-22T05:06:33.236Z,1063.00
2023-04-22T05:07:33.272Z,2401.00
2023-04-22T05:08:33.198Z,1723.00
2023-04-22T05:09:33.221Z,1336.00
2023-04-22T05:10:33.188Z,1243.00
2023-04-22T05:11:33.193Z,1255.00
2023-04-22T05:12:33.154Z,1292.00
2023-04-22T05:13:33.194Z,1323.00
2023-04-22T05:14:33.146Z,1354.00
2023-04-22T05:15:33.129Z,1459.00
2023-04-22T05:16:33.172Z,1514.00
2023-04-22T05:17:33.123Z,1503.00
2023-04-22T05:18:33.098Z,1496.00
2023-04-22T05:19:33.102Z,1539.00
2023-04-22T05:20:35.881Z,1606.00
2023-04-22T05:21:33.101Z,1620.00
2023-04-22T05:22:33.049Z,1616.00
2023-04-22T05:23:33.065Z,1584.00
2023-04-22T05:24:33.029Z,1100.00
2023-04-22T05:25:33.031Z,1461.00
2023-04-22T05:26:33.023Z,2534.00
2023-04-22T05:27:33.027Z,4073.00
2023-04-22T05:28:32.983Z,2622.00
2023-04-22T05:29:32.988Z,3152.00
2023-04-22T05:30:32.963Z,3953.00
2023-04-22T05:31:33.007Z,5995.00
2023-04-22T05:32:33.052Z,6380.00
2023-04-22T05:33:32.940Z,19085.00
2023-04-22T05:34:32.921Z,3893.00
2023-04-22T05:35:32.983Z,12094.00
2023-04-22T05:36:32.904Z,20537.00
2023-04-22T05:37:32.906Z,8203.00
2023-04-22T05:38:32.885Z,5557.00
2023-04-22T05:39:32.928Z,6184.00
2023-04-22T05:40:32.856Z,19651.00
2023-04-22T05:41:32.854Z,17474.00
2023-04-22T05:42:32.947Z,7659.00
2023-04-22T05:43:32.835Z,3870.00
2023-04-22T05:44:32.814Z,2903.00
2023-04-22T05:45:32.884Z,3287.00
2023-04-22T05:46:32.848Z,3243.00
2023-04-22T05:47:32.826Z,4428.00
2023-04-22T05:48:32.832Z,4764.00
2023-04-22T05:49:32.770Z,13699.00
2023-04-22T05:50:32.752Z,18071.00
2023-04-22T05:51:32.797Z,13241.00
2023-04-22T05:52:32.749Z,8953.00
2023-04-22T05:53:32.724Z,6037.00
2023-04-22T05:54:32.763Z,5764.00
2023-04-22T05:55:32.718Z,3090.00
2023-04-22T05:56:32.680Z,6566.00
2023-04-22T05:57:32.798Z,4990.00
2023-04-22T05:58:32.661Z,6277.00
2023-04-22T05:59:32.660Z,10490.00
2023-04-22T06:00:32.674Z,5787.00
2023-04-22T06:01:32.639Z,4303.00
2023-04-22T06:02:32.753Z,5858.00
2023-04-22T06:03:32.854Z,6387.00
2023-04-22T06:04:35.384Z,4302.00
2023-04-22T06:05:32.630Z,5983.00
2023-04-22T06:06:32.651Z,3248.00
2023-04-22T06:07:32.769Z,7972.00
2023-04-22T06:08:32.561Z,12804.00
2023-04-22T06:09:32.572Z,6150.00
2023-04-22T06:10:32.533Z,5580.00
2023-04-22T06:11:32.529Z,5184.00
2023-04-22T06:12:32.530Z,6899.00
2023-04-22T06:13:32.528Z,7363.00
2023-04-22T06:14:32.496Z,10076.00
2023-04-22T06:15:32.529Z,8632.00
2023-04-22T06:16:32.495Z,11614.00
2023-04-22T06:17:32.508Z,11167.00
2023-04-22T06:18:32.462Z,11707.00
2023-04-22T06:19:32.463Z,14835.00
2023-04-22T06:20:32.426Z,7767.00
2023-04-22T06:21:32.417Z,8958.00
2023-04-22T06:22:32.435Z,7375.00
2023-04-22T06:23:32.403Z,13345.00
2023-04-22T06:24:32.389Z,4001.00
2023-04-22T06:25:32.412Z,6038.00
2023-04-22T06:26:32.365Z,13555.00
2023-04-22T06:27:32.374Z,6727.00
2023-04-22T06:28:32.347Z,11056.00
2023-04-22T06:29:32.347Z,7959.00
2023-04-22T06:30:32.307Z,4864.00
2023-04-22T06:31:32.402Z,7214.00
2023-04-22T06:32:32.316Z,10668.00
2023-04-22T06:33:32.304Z,6806.00
2023-04-22T06:34:32.315Z,7160.00
2023-04-22T06:35:32.268Z,6458.00
2023-04-22T06:36:32.248Z,4257.00
2023-04-22T06:37:32.342Z,5236.00
2023-04-22T06:38:32.230Z,14405.00
2023-04-22T06:39:32.236Z,13759.00
2023-04-22T06:40:32.209Z,11770.00
2023-04-22T06:41:32.206Z,8550.00
2023-04-22T06:42:32.216Z,7866.00
2023-04-22T06:43:32.183Z,7609.00
2023-04-22T06:44:32.165Z,8284.00
2023-04-22T06:45:32.162Z,6509.00
2023-04-22T06:46:32.167Z,7417.00
2023-04-22T06:47:32.227Z,7726.00
2023-04-22T06:48:32.133Z,6883.00
2023-04-22T06:49:32.118Z,6749.00
2023-04-22T06:50:32.135Z,6128.00
2023-04-22T06:51:32.103Z,5717.00
2023-04-22T06:52:32.138Z,7065.00
2023-04-22T06:53:32.078Z,7749.00
2023-04-22T06:54:32.082Z,8228.00
2023-04-22T06:55:32.085Z,7080.00
2023-04-22T06:56:32.047Z,6119.00
2023-04-22T06:57:32.057Z,6227.00
2023-04-22T06:58:32.006Z,6476.00
2023-04-22T06:59:32.017Z,5789.00
2023-04-22T07:00:32.009Z,5566.00
2023-04-22T07:01:32.023Z,6302.00
2023-04-22T07:02:32.026Z,5768.00
2023-04-22T07:03:32.163Z,6595.00
2023-04-22T07:04:32.001Z,6084.00
2023-04-22T07:05:31.958Z,5661.00
2023-04-22T07:06:32.001Z,7416.00
2023-04-22T07:07:31.944Z,6439.00
2023-04-22T07:08:31.921Z,5051.00
2023-04-22T07:09:31.974Z,15519.00
2023-04-22T07:10:31.884Z,30725.00
2023-04-22T07:11:31.894Z,30383.00
2023-04-22T07:12:31.908Z,14337.00
2023-04-22T07:13:31.858Z,25097.00
2023-04-22T07:14:31.849Z,24038.00
2023-04-22T07:15:31.887Z,17961.00
2023-04-22T07:16:31.908Z,15120.00
2023-04-22T07:17:31.867Z,16217.00
2023-04-22T07:18:31.828Z,17274.00
2023-04-22T07:19:33.269Z,12413.00
2023-04-22T07:20:31.788Z,24490.00
2023-04-22T07:21:31.811Z,75951.00
2023-04-22T07:22:31.777Z,79574.00
2023-04-22T07:23:31.749Z,81115.00
2023-04-22T07:24:31.789Z,80074.00
2023-04-22T07:25:31.727Z,82878.00
2023-04-22T07:26:31.740Z,80095.00
2023-04-22T07:27:31.815Z,82214.00
2023-04-22T07:28:31.706Z,82137.00
2023-04-22T07:29:31.696Z,80326.00
2023-04-22T07:30:31.724Z,79420.00
2023-04-22T07:31:31.670Z,80264.00
2023-04-22T07:32:31.750Z,79483.00
2023-04-22T07:33:31.640Z,80623.00
2023-04-22T07:34:31.638Z,82149.00
2023-04-22T07:35:31.641Z,78706.00
2023-04-22T07:36:31.615Z,79584.00
2023-04-22T07:37:31.669Z,78008.00
2023-04-22T07:38:31.585Z,75168.00
2023-04-22T07:39:31.581Z,79330.00
2023-04-22T07:40:31.605Z,75476.00
2023-04-22T07:41:31.562Z,75466.00
2023-04-22T07:42:31.615Z,79338.00
2023-04-22T07:43:31.550Z,80782.00
2023-04-22T07:44:31.528Z,81519.00
2023-04-22T07:45:31.564Z,79944.00
2023-04-22T07:46:31.546Z,82238.00
2023-04-22T07:47:31.533Z,81254.00
2023-04-22T07:48:31.477Z,81227.00
2023-04-22T07:49:31.501Z,80329.00
2023-04-22T07:50:31.463Z,79885.00
2023-04-22T07:51:31.458Z,82188.00
2023-04-22T07:52:31.467Z,80505.00
2023-04-22T07:53:31.444Z,80628.00
2023-04-22T07:54:31.459Z,80037.00
2023-04-22T07:55:31.412Z,79360.00
2023-04-22T07:56:31.413Z,78189.00
2023-04-22T07:57:31.425Z,78540.00
2023-04-22T07:58:31.394Z,77724.00
2023-04-22T07:59:31.402Z,74059.00
2023-04-22T08:00:31.413Z,75434.00
2023-04-22T08:01:31.355Z,69617.00
2023-04-22T08:02:31.499Z,30001.00
2023-04-22T08:03:31.539Z,12127.00
2023-04-22T08:04:31.514Z,8251.00
2023-04-22T08:05:31.328Z,21737.00
2023-04-22T08:06:31.305Z,6387.00
2023-04-22T08:07:33.505Z,24942.00
2023-04-22T08:08:31.309Z,30747.00
2023-04-22T08:09:31.290Z,27874.00
2023-04-22T08:10:31.281Z,15233.00
2023-04-22T08:11:31.258Z,20850.00
2023-04-22T08:12:31.286Z,24481.00
2023-04-22T08:13:31.238Z,39698.00
2023-04-22T08:14:31.258Z,24684.00
2023-04-22T08:15:31.217Z,7475.00
2023-04-22T08:16:31.192Z,19158.00
2023-04-22T08:17:31.264Z,27962.00
2023-04-22T08:18:31.187Z,9733.00
2023-04-22T08:19:31.172Z,16499.00
2023-04-22T08:20:31.154Z,10676.00
2023-04-22T08:21:31.159Z,10870.00
2023-04-22T08:22:31.161Z,9119.00
2023-04-22T08:23:31.136Z,11574.00
2023-04-22T08:24:31.121Z,14221.00
2023-04-22T08:25:31.110Z,12338.00
2023-04-22T08:26:31.096Z,8503.00
2023-04-22T08:27:31.096Z,6293.00
2023-04-22T08:28:31.076Z,26831.00
2023-04-22T08:29:31.065Z,19308.00
2023-04-22T08:30:31.057Z,26362.00
2023-04-22T08:31:31.083Z,28175.00
2023-04-22T08:32:31.095Z,23334.00
2023-04-22T08:33:31.067Z,17977.00
2023-04-22T08:34:31.017Z,26830.00
2023-04-22T08:35:31.010Z,28306.00
2023-04-22T08:36:31.020Z,24805.00
2023-04-22T08:37:31.011Z,23276.00
2023-04-22T08:38:30.973Z,28071.00
2023-04-22T08:39:31.000Z,73746.00
2023-04-22T08:40:30.956Z,30972.00
2023-04-22T08:41:30.950Z,30946.00
2023-04-22T08:42:30.993Z,23244.00
2023-04-22T08:43:30.927Z,28003.00
2023-04-22T08:44:30.902Z,26069.00
2023-04-22T08:45:30.935Z,72238.00
2023-04-22T08:46:30.932Z,20565.00
2023-04-22T08:47:30.902Z,75361.00
2023-04-22T08:48:30.892Z,70278.00
2023-04-22T08:49:30.853Z,20314.00
2023-04-22T08:50:30.854Z,32764.00
2023-04-22T08:51:30.850Z,26863.00
2023-04-22T08:52:30.859Z,23958.00
2023-04-22T08:53:30.826Z,21170.00
2023-04-22T08:54:30.810Z,22530.00
2023-04-22T08:55:30.796Z,17593.00
2023-04-22T08:56:30.797Z,22994.00
2023-04-22T08:57:30.805Z,14039.00
2023-04-22T08:58:30.774Z,12162.00
2023-04-22T08:59:30.752Z,13160.00
2023-04-22T09:00:30.747Z,9987.00
2023-04-22T09:01:30.792Z,10073.00
2023-04-22T09:02:30.790Z,8992.00
2023-04-22T09:03:30.773Z,13095.00
2023-04-22T09:04:30.762Z,8074.00
2023-04-22T09:05:30.707Z,17772.00
2023-04-22T09:06:30.696Z,11652.00
2023-04-22T09:07:30.734Z,14710.00
2023-04-22T09:08:30.811Z,5884.00
2023-04-22T09:09:30.700Z,7936.00
2023-04-22T09:10:31.881Z,23986.00
2023-04-22T09:11:30.646Z,21754.00
2023-04-22T09:12:30.661Z,16185.00
2023-04-22T09:13:30.615Z,17140.00
2023-04-22T09:14:30.599Z,17453.00
2023-04-22T09:15:30.647Z,13262.00
2023-04-22T09:16:30.627Z,11116.00
2023-04-22T09:17:30.680Z,19745.00
2023-04-22T09:18:30.590Z,24239.00
2023-04-22T09:19:30.537Z,34494.00
2023-04-22T09:20:30.582Z,23996.00
2023-04-22T09:21:30.519Z,14689.00
2023-04-22T09:22:30.543Z,8934.00
2023-04-22T09:23:30.499Z,11278.00
2023-04-22T09:24:30.498Z,11959.00
2023-04-22T09:25:30.486Z,23305.00
2023-04-22T09:26:30.470Z,17835.00
2023-04-22T09:27:30.607Z,15622.00
2023-04-22T09:28:30.451Z,16709.00
2023-04-22T09:29:30.476Z,16017.00
2023-04-22T09:30:30.469Z,14959.00
2023-04-22T09:31:30.524Z,22105.00
2023-04-22T09:32:30.472Z,28858.00
2023-04-22T09:33:30.432Z,5652.00
2023-04-22T09:34:30.414Z,26215.00
2023-04-22T09:35:30.431Z,28692.00
2023-04-22T09:36:30.428Z,19428.00
2023-04-22T09:37:39.292Z,11769.00
2023-04-22T09:38:30.352Z,9454.00
2023-04-22T09:39:30.326Z,10095.00
2023-04-22T09:40:30.319Z,8705.00
2023-04-22T09:41:30.372Z,8651.00
2023-04-22T09:42:30.319Z,7711.00
2023-04-22T09:43:30.289Z,7586.00
2023-04-22T09:44:30.300Z,7496.00
2023-04-22T09:45:30.266Z,6242.00
2023-04-22T09:46:30.297Z,7218.00
2023-04-22T09:47:30.307Z,7364.00
2023-04-22T09:48:30.272Z,8280.00
2023-04-22T09:49:30.223Z,6652.00
2023-04-22T09:50:30.231Z,6250.00
2023-04-22T09:51:30.212Z,6873.00
2023-04-22T09:52:30.220Z,6759.00
2023-04-22T09:53:30.177Z,4241.00
2023-04-22T09:54:30.276Z,9608.00
2023-04-22T09:55:30.169Z,7103.00
2023-04-22T09:56:30.211Z,5995.00
2023-04-22T09:57:30.200Z,8320.00
2023-04-22T09:58:30.143Z,8149.00
2023-04-22T09:59:30.164Z,6842.00
2023-04-22T10:00:30.129Z,9423.00
2023-04-22T10:01:30.184Z,5441.00
2023-04-22T10:02:30.301Z,6384.00
2023-04-22T10:03:30.100Z,6292.00
2023-04-22T10:04:30.238Z,7835.00
2023-04-22T10:05:30.060Z,6608.00
2023-04-22T10:06:30.055Z,4134.00
2023-04-22T10:07:30.118Z,4265.00
2023-04-22T10:08:30.021Z,8115.00
2023-04-22T10:09:30.059Z,9174.00
2023-04-22T10:10:30.027Z,7414.00
2023-04-22T10:11:29.997Z,8326.00
2023-04-22T10:12:35.797Z,10050.00
2023-04-22T10:13:29.976Z,9221.00
2023-04-22T10:14:29.980Z,6675.00
2023-04-22T10:15:29.959Z,6666.00
2023-04-22T10:16:29.985Z,6430.00
2023-04-22T10:17:29.977Z,6593.00
2023-04-22T10:18:29.955Z,6491.00
2023-04-22T10:19:29.915Z,7015.00
2023-04-22T10:20:29.906Z,6291.00
2023-04-22T10:21:29.907Z,7044.00
2023-04-22T10:22:29.935Z,6530.00
2023-04-22T10:23:29.876Z,3231.00
2023-04-22T10:24:29.878Z,4708.00
2023-04-22T10:25:29.854Z,5834.00
2023-04-22T10:26:29.884Z,6537.00
2023-04-22T10:27:29.878Z,5459.00
2023-04-22T10:28:29.828Z,5665.00
2023-04-22T10:29:29.799Z,5296.00
2023-04-22T10:30:29.923Z,4431.00
2023-04-22T10:31:29.894Z,4166.00
2023-04-22T10:32:29.808Z,5404.00
2023-04-22T10:33:29.756Z,5453.00
2023-04-22T10:34:29.765Z,6499.00
2023-04-22T10:35:29.861Z,3383.00
2023-04-22T10:36:29.743Z,5157.00
2023-04-22T10:37:30.816Z,5740.00
2023-04-22T10:38:29.719Z,4441.00
2023-04-22T10:39:29.696Z,5193.00
2023-04-22T10:40:29.706Z,5289.00
2023-04-22T10:41:29.756Z,5589.00
2023-04-22T10:42:29.696Z,5667.00
2023-04-22T10:43:30.248Z,8744.00
2023-04-22T10:44:29.656Z,3016.00
2023-04-22T10:45:29.674Z,12238.00
2023-04-22T10:46:29.687Z,5756.00
2023-04-22T10:47:29.698Z,5215.00
2023-04-22T10:48:29.615Z,4358.00
2023-04-22T10:49:29.596Z,3806.00
2023-04-22T10:50:29.720Z,2734.00
2023-04-22T10:51:29.620Z,10565.00
2023-04-22T10:52:29.615Z,2645.00
2023-04-22T10:53:29.576Z,5092.00
2023-04-22T10:54:31.962Z,4553.00
2023-04-22T10:55:29.573Z,4900.00
2023-04-22T10:56:29.530Z,5612.00
2023-04-22T10:57:29.526Z,3393.00
2023-04-22T10:58:29.555Z,3878.00
2023-04-22T10:59:29.525Z,4166.00
2023-04-22T11:00:35.315Z,4026.00
2023-04-22T11:01:29.508Z,4819.00
2023-04-22T11:02:29.549Z,5273.00
2023-04-22T11:03:30.159Z,4200.00
2023-04-22T11:04:29.463Z,4494.00
2023-04-22T11:05:29.436Z,9884.00
2023-04-22T11:06:29.469Z,4630.00
2023-04-22T11:07:29.437Z,2504.00
2023-04-22T11:08:29.416Z,8715.00
2023-04-22T11:09:29.459Z,4399.00
2023-04-22T11:10:29.380Z,2433.00
2023-04-22T11:11:29.376Z,3308.00
2023-04-22T11:12:29.393Z,4035.00
2023-04-22T11:13:29.348Z,9773.00
2023-04-22T11:14:29.347Z,3902.00
2023-04-22T11:15:29.320Z,3637.00
2023-04-22T11:16:29.388Z,2594.00
2023-04-22T11:17:29.389Z,2463.00
2023-04-22T11:18:29.304Z,4391.00
2023-04-22T11:19:29.322Z,5224.00
2023-04-22T11:20:29.296Z,6458.00
2023-04-22T11:21:29.277Z,4418.00
2023-04-22T11:22:29.322Z,2215.00
2023-04-22T11:23:29.255Z,3626.00
2023-04-22T11:24:29.237Z,7269.00
2023-04-22T11:25:29.244Z,4123.00
2023-04-22T11:26:29.221Z,4089.00
2023-04-22T11:27:29.255Z,3989.00
2023-04-22T11:28:29.190Z,3798.00
2023-04-22T11:29:29.270Z,2117.00
2023-04-22T11:30:29.183Z,3855.00
2023-04-22T11:31:29.254Z,6615.00
2023-04-22T11:32:29.277Z,4453.00
2023-04-22T11:33:29.157Z,3678.00
2023-04-22T11:34:29.123Z,4103.00
2023-04-22T11:35:29.171Z,3592.00
2023-04-22T11:36:29.115Z,3580.00
2023-04-22T11:37:29.245Z,3808.00
2023-04-22T11:38:29.168Z,3907.00
2023-04-22T11:39:29.079Z,3352.00
2023-04-22T11:40:31.609Z,3859.00
2023-04-22T11:41:29.050Z,3486.00
2023-04-22T11:42:29.093Z,3577.00
2023-04-22T11:43:29.044Z,3337.00
2023-04-22T11:44:29.028Z,3721.00
2023-04-22T11:45:29.045Z,3906.00
2023-04-22T11:46:29.157Z,3687.00
2023-04-22T11:47:29.022Z,2937.00
2023-04-22T11:48:29.001Z,3563.00
2023-04-22T11:49:28.984Z,4769.00
2023-04-22T11:50:29.045Z,3458.00
2023-04-22T11:51:28.955Z,2642.00
2023-04-22T11:52:28.965Z,4830.00
2023-04-22T11:53:28.921Z,2096.00
2023-04-22T11:54:28.940Z,5498.00
2023-04-22T11:55:28.926Z,3456.00
2023-04-22T11:56:28.915Z,2355.00
2023-04-22T11:57:28.900Z,4112.00
2023-04-22T11:58:28.872Z,7638.00
2023-04-22T11:59:28.860Z,2348.00
2023-04-22T12:00:28.853Z,4975.00
2023-04-22T12:01:28.864Z,3778.00
2023-04-22T12:02:28.902Z,4268.00
2023-04-22T12:03:29.200Z,4464.00
2023-04-22T12:04:28.798Z,3792.00
2023-04-22T12:05:28.837Z,4226.00
2023-04-22T12:06:28.782Z,3828.00
2023-04-22T12:07:28.789Z,4209.00
2023-04-22T12:08:28.773Z,3796.00
2023-04-22T12:09:28.748Z,3574.00
2023-04-22T12:10:28.759Z,3634.00
2023-04-22T12:11:28.733Z,3763.00
2023-04-22T12:12:28.759Z,3935.00
2023-04-22T12:13:28.730Z,4183.00
2023-04-22T12:14:28.712Z,3317.00
2023-04-22T12:15:28.707Z,3617.00
2023-04-22T12:16:28.713Z,3720.00
2023-04-22T12:17:28.709Z,4102.00
2023-04-22T12:18:28.658Z,4091.00
2023-04-22T12:19:28.634Z,3719.00
2023-04-22T12:20:28.660Z,3659.00
2023-04-22T12:21:28.676Z,3681.00
2023-04-22T12:22:28.631Z,3658.00
2023-04-22T12:23:28.603Z,3737.00
2023-04-22T12:24:28.588Z,4072.00
2023-04-22T12:25:28.574Z,4079.00
2023-04-22T12:26:28.704Z,4395.00
2023-04-22T12:27:28.567Z,4202.00
2023-04-22T12:28:28.562Z,4107.00